createdAt,value
2022-09-23T00:02:07.358Z,100828.09
2022-09-23T00:04:57.427Z,100820.13
2022-09-23T00:07:47.606Z,100825.97
2022-09-23T00:10:40.969Z,100841.78
2022-09-23T00:13:31.795Z,100847.81
2022-09-23T00:16:29.780Z,100857.22
2022-09-23T00:19:19.846Z,100854.47
2022-09-23T00:22:10.347Z,100855.25
2022-09-23T00:25:04.170Z,100855.97
2022-09-23T00:27:54.873Z,100854.31
2022-09-23T00:30:46.283Z,100854.97
2022-09-23T00:33:36.821Z,100845.75
2022-09-23T00:36:28.298Z,100848.00
2022-09-23T00:39:19.631Z,100853.03
2022-09-23T00:42:17.797Z,100856.38
2022-09-23T00:45:12.998Z,100853.38
2022-09-23T00:48:07.739Z,100861.47
2022-09-23T00:50:58.685Z,100847.41
2022-09-23T00:53:51.188Z,100841.22
2022-09-23T00:56:41.637Z,100840.91
2022-09-23T00:59:31.966Z,100847.41
2022-09-23T01:02:25.263Z,100844.09
2022-09-23T01:05:16.586Z,100847.81
2022-09-23T01:08:06.867Z,100845.00
2022-09-23T01:11:09.433Z,100846.59
2022-09-23T01:14:12.403Z,100845.22
2022-09-23T01:17:09.628Z,100845.81
2022-09-23T01:20:10.608Z,100849.81
2022-09-23T01:23:19.340Z,100848.78
2022-09-23T01:26:29.678Z,100851.47
2022-09-23T01:29:38.154Z,100863.28
2022-09-23T01:32:47.269Z,100867.50
2022-09-23T01:35:57.178Z,100860.97
2022-09-23T01:38:55.244Z,100861.88
2022-09-23T01:41:55.812Z,100861.88
2022-09-23T01:44:53.824Z,100863.06
2022-09-23T01:47:57.105Z,100850.00
2022-09-23T01:51:00.281Z,100837.53
2022-09-23T01:54:26.842Z,100833.03
2022-09-23T01:57:47.098Z,100830.53
2022-09-23T02:00:42.331Z,100829.00
2022-09-23T02:03:48.551Z,100826.31
2022-09-23T02:06:44.369Z,100828.16
2022-09-23T02:09:39.859Z,100821.56
2022-09-23T02:12:32.166Z,100812.06
2022-09-23T02:15:27.328Z,100813.81
2022-09-23T02:18:24.567Z,100814.34
2022-09-23T02:21:15.076Z,100799.81
2022-09-23T02:24:17.505Z,100794.91
2022-09-23T02:27:33.475Z,100794.78
2022-09-23T02:30:28.690Z,100785.84
2022-09-23T02:33:41.594Z,100783.66
2022-09-23T02:36:52.408Z,100780.63
2022-09-23T02:39:49.533Z,100783.31
2022-09-23T02:42:50.396Z,100778.97
2022-09-23T02:45:40.804Z,100780.03
2022-09-23T02:49:00.459Z,100791.34
2022-09-23T02:51:51.729Z,100777.69
2022-09-23T02:54:43.129Z,100778.72
2022-09-23T02:57:33.678Z,100782.31
2022-09-23T03:00:25.095Z,100792.97
2022-09-23T03:03:41.894Z,100786.00
2022-09-23T03:07:25.531Z,100783.97
2022-09-23T03:10:23.986Z,100774.91
2022-09-23T03:13:43.504Z,100761.59
2022-09-23T03:17:06.261Z,100749.78
2022-09-23T03:20:09.618Z,100740.84
2022-09-23T03:23:05.041Z,100735.91
2022-09-23T03:25:57.825Z,100731.31
2022-09-23T03:28:48.937Z,100736.34
2022-09-23T03:31:44.032Z,100718.09
2022-09-23T03:34:36.421Z,100716.59
2022-09-23T03:37:56.272Z,100707.66
2022-09-23T03:40:49.230Z,100713.72
2022-09-23T03:43:42.393Z,100699.38
2022-09-23T03:46:36.086Z,100702.28
2022-09-23T03:49:29.433Z,100708.56
2022-09-23T03:52:20.908Z,100716.09
2022-09-23T03:55:12.441Z,100706.50
2022-09-23T03:58:04.670Z,100699.44
2022-09-23T04:00:56.253Z,100689.22
2022-09-23T04:03:48.545Z,100683.63
2022-09-23T04:06:39.542Z,100681.97
2022-09-23T04:09:31.019Z,100682.81
2022-09-23T04:12:21.899Z,100687.56
2022-09-23T04:15:13.491Z,100673.16
2022-09-23T04:18:03.267Z,100678.19
2022-09-23T04:20:53.844Z,100674.84
2022-09-23T04:23:44.321Z,100669.63
2022-09-23T04:26:36.272Z,100654.63
2022-09-23T04:29:28.245Z,100638.38
2022-09-23T04:32:18.802Z,100623.78
2022-09-23T04:35:10.412Z,100621.72
2022-09-23T04:38:02.027Z,100629.41
2022-09-23T04:40:54.935Z,100635.66
2022-09-23T04:43:46.091Z,100622.13
2022-09-23T04:46:37.059Z,100622.75
2022-09-23T04:49:27.945Z,100615.03
2022-09-23T04:52:18.530Z,100611.06
2022-09-23T04:55:11.290Z,100618.53
2022-09-23T04:58:03.871Z,100621.22
2022-09-23T05:00:54.730Z,100623.53
2022-09-23T05:03:46.291Z,100616.84
2022-09-23T05:06:37.258Z,100616.41
2022-09-23T05:09:32.682Z,100615.16
2022-09-23T05:12:23.471Z,100613.47
2022-09-23T05:15:17.576Z,100610.94
2022-09-23T05:18:11.366Z,100596.97
2022-09-23T05:21:03.729Z,100603.16
2022-09-23T05:23:58.054Z,100606.03
2022-09-23T05:26:48.092Z,100604.97
2022-09-23T05:29:39.473Z,100606.81
2022-09-23T05:32:30.689Z,100598.69
2022-09-23T05:35:20.985Z,100595.78
2022-09-23T05:38:11.581Z,100585.78
2022-09-23T05:41:03.492Z,100578.69
2022-09-23T05:43:54.721Z,100568.50
2022-09-23T05:46:45.938Z,100568.69
2022-09-23T05:49:58.124Z,100564.75
2022-09-23T05:52:48.048Z,100564.75
2022-09-23T05:55:39.341Z,100558.28
2022-09-23T05:58:30.220Z,100557.00
2022-09-23T06:01:28.039Z,100555.72
2022-09-23T06:04:19.391Z,100561.91
2022-09-23T06:07:10.892Z,100562.31
2022-09-23T06:10:01.600Z,100562.31
2022-09-23T06:12:51.715Z,100558.97
2022-09-23T06:15:42.679Z,100555.63
2022-09-23T06:18:33.562Z,100557.28
2022-09-23T06:21:27.750Z,100551.41
2022-09-23T06:24:20.860Z,100545.38
2022-09-23T06:27:12.857Z,100536.47
2022-09-23T06:30:06.125Z,100526.03
2022-09-23T06:32:58.006Z,100528.53
2022-09-23T06:35:57.409Z,100529.97
2022-09-23T06:38:50.871Z,100538.50
2022-09-23T06:41:41.275Z,100548.66
2022-09-23T06:44:34.650Z,100553.41
2022-09-23T06:47:29.394Z,100569.00
2022-09-23T06:50:20.483Z,100577.09
2022-09-23T06:53:11.591Z,100582.25
2022-09-23T06:56:03.915Z,100573.75
2022-09-23T06:58:56.252Z,100565.59
2022-09-23T07:01:47.829Z,100569.38
2022-09-23T07:04:38.537Z,100561.66
2022-09-23T07:07:34.267Z,100553.97
2022-09-23T07:10:25.228Z,100558.34
2022-09-23T07:13:16.455Z,100554.16
2022-09-23T07:16:07.407Z,100547.94
2022-09-23T07:18:57.592Z,100555.19
2022-09-23T07:21:47.574Z,100544.19
2022-09-23T07:24:38.783Z,100545.22
2022-09-23T07:27:29.900Z,100539.81
2022-09-23T07:30:25.139Z,100539.22
2022-09-23T07:33:29.182Z,100533.81
2022-09-23T07:36:22.989Z,100525.09
2022-09-23T07:39:14.641Z,100521.56
2022-09-23T07:42:06.783Z,100528.00
2022-09-23T07:44:58.318Z,100525.09
2022-09-23T07:47:48.979Z,100535.84
2022-09-23T07:50:43.170Z,100537.13
2022-09-23T07:53:33.855Z,100531.72
2022-09-23T07:56:28.457Z,100529.59
2022-09-23T07:59:20.492Z,100519.66
2022-09-23T08:02:12.551Z,100531.28
2022-09-23T08:05:02.797Z,100545.16
2022-09-23T08:07:52.954Z,100536.59
2022-09-23T08:10:44.248Z,100542.00
2022-09-23T08:13:35.097Z,100543.22
2022-09-23T08:16:25.709Z,100556.53
2022-09-23T08:19:16.879Z,100567.97
2022-09-23T08:22:07.233Z,100575.22
2022-09-23T08:24:57.516Z,100572.47
2022-09-23T08:27:48.423Z,100575.94
2022-09-23T08:30:39.312Z,100588.41
2022-09-23T08:33:30.213Z,100597.53
2022-09-23T08:36:20.541Z,100599.22
2022-09-23T08:39:12.450Z,100605.75
2022-09-23T08:42:18.745Z,100602.94
2022-09-23T08:45:20.697Z,100600.25
2022-09-23T08:48:16.269Z,100614.13
2022-09-23T08:51:10.064Z,100619.53
2022-09-23T08:54:03.686Z,100617.38
2022-09-23T08:56:54.147Z,100621.56
2022-09-23T08:59:46.970Z,100620.28
2022-09-23T09:02:41.497Z,100624.41
2022-09-23T09:05:35.044Z,100623.63
2022-09-23T09:08:28.895Z,100620.28
2022-09-23T09:11:20.703Z,100626.88
2022-09-23T09:14:32.362Z,100625.44
2022-09-23T09:17:40.016Z,100626.25
2022-09-23T09:20:40.376Z,100633.06
2022-09-23T09:23:53.933Z,100628.50
2022-09-23T09:26:44.775Z,100631.59
2022-09-23T09:29:40.217Z,100632.56
2022-09-23T09:32:48.711Z,100633.63
2022-09-23T09:35:44.743Z,100632.63
2022-09-23T09:38:35.289Z,100631.16
2022-09-23T09:41:33.401Z,100633.84
2022-09-23T09:44:50.340Z,100621.81
2022-09-23T09:47:53.106Z,100619.13
2022-09-23T09:50:43.583Z,100621.38
2022-09-23T09:53:37.264Z,100622.22
2022-09-23T09:56:36.740Z,100623.81
2022-09-23T09:59:30.289Z,100618.44
2022-09-23T10:02:36.377Z,100619.63
2022-09-23T10:05:36.536Z,100615.25
2022-09-23T10:08:39.322Z,100619.63
2022-09-23T10:11:32.838Z,100619.72
2022-09-23T10:14:23.278Z,100622.06
2022-09-23T10:17:36.097Z,100627.81
2022-09-23T10:20:27.001Z,100625.78
2022-09-23T10:23:29.140Z,100628.47
2022-09-23T10:26:20.440Z,100626.97
2022-09-23T10:29:35.199Z,100631.19
2022-09-23T10:32:28.848Z,100625.88
2022-09-23T10:35:25.918Z,100632.56
2022-09-23T10:38:17.159Z,100639.19
2022-09-23T10:41:57.339Z,100644.38
2022-09-23T10:45:08.759Z,100642.69
2022-09-23T10:48:17.090Z,100646.41
2022-09-23T10:51:29.054Z,100649.13
2022-09-23T10:54:42.139Z,100637.94
2022-09-23T10:57:48.075Z,100649.31
2022-09-23T11:00:48.346Z,100642.69
2022-09-23T11:03:47.822Z,100636.28
2022-09-23T11:06:46.867Z,100642.69
2022-09-23T11:10:23.219Z,100653.47
2022-09-23T11:13:54.413Z,100661.56
2022-09-23T11:16:47.979Z,100666.69
2022-09-23T11:19:57.397Z,100664.66
2022-09-23T11:23:26.623Z,100670.97
2022-09-23T11:26:50.244Z,100680.47
2022-09-23T11:29:55.404Z,100691.25
2022-09-23T11:33:07.073Z,100705.75
2022-09-23T11:36:07.148Z,100718.41
2022-09-23T11:38:59.577Z,100722.31
2022-09-23T11:41:56.923Z,100726.03
2022-09-23T11:44:51.361Z,100728.81
2022-09-23T11:47:49.793Z,100726.69
2022-09-23T11:50:40.590Z,100733.00
2022-09-23T11:53:43.018Z,100734.41
2022-09-23T11:56:45.045Z,100738.47
2022-09-23T11:59:41.843Z,100735.88
2022-09-23T12:02:35.685Z,100742.03
2022-09-23T12:05:29.155Z,100736.31
2022-09-23T12:08:20.194Z,100732.31
2022-09-23T12:11:32.730Z,100726.44
2022-09-23T12:14:51.619Z,100732.41
2022-09-23T12:17:45.228Z,100734.16
2022-09-23T12:21:00.986Z,100743.91
2022-09-23T12:24:04.339Z,100737.00
2022-09-23T12:27:01.057Z,100752.34
2022-09-23T12:29:54.767Z,100757.91
2022-09-23T12:32:46.988Z,100763.47
2022-09-23T12:35:42.872Z,100768.50
2022-09-23T12:38:43.862Z,100772.38
2022-09-23T12:41:42.913Z,100764.81
2022-09-23T12:44:38.256Z,100750.31
2022-09-23T12:47:40.429Z,100748.28
2022-09-23T12:50:55.083Z,100749.75
2022-09-23T12:53:57.683Z,100765.16
2022-09-23T12:56:57.482Z,100758.75
2022-09-23T12:59:55.174Z,100768.03
2022-09-23T13:03:09.419Z,100772.59
2022-09-23T13:06:21.667Z,100773.25
2022-09-23T13:09:34.294Z,100777.63
2022-09-23T13:12:41.147Z,100775.69
2022-09-23T13:15:38.895Z,100779.00
2022-09-23T13:18:57.311Z,100789.41
2022-09-23T13:21:48.061Z,100790.44
2022-09-23T13:24:55.858Z,100792.91
2022-09-23T13:27:52.214Z,100797.00
2022-09-23T13:30:53.577Z,100799.53
2022-09-23T13:33:44.955Z,100797.19
2022-09-23T13:36:48.965Z,100803.59
2022-09-23T13:39:42.002Z,100802.56
2022-09-23T13:42:36.035Z,100809.81
2022-09-23T13:45:28.448Z,100803.59
2022-09-23T13:48:19.352Z,100813.06
2022-09-23T13:51:13.220Z,100810.34
2022-09-23T13:54:05.795Z,100809.34
2022-09-23T13:56:57.116Z,100812.56
2022-09-23T13:59:47.855Z,100811.38
2022-09-23T14:02:44.912Z,100809.69
2022-09-23T14:05:37.865Z,100803.97
2022-09-23T14:08:30.731Z,100800.59
2022-09-23T14:11:22.090Z,100797.25
2022-09-23T14:14:20.150Z,100795.22
2022-09-23T14:17:14.231Z,100790.66
2022-09-23T14:20:05.047Z,100797.91
2022-09-23T14:23:12.026Z,100792.09
2022-09-23T14:26:04.430Z,100800.84
2022-09-23T14:28:54.954Z,100785.50
2022-09-23T14:31:58.217Z,100797.50
2022-09-23T14:34:51.568Z,100789.03
2022-09-23T14:38:02.491Z,100791.75
2022-09-23T14:40:53.639Z,100794.06
2022-09-23T14:44:07.850Z,100787.09
2022-09-23T14:47:00.593Z,100782.28
2022-09-23T14:50:11.769Z,100774.84
2022-09-23T14:53:02.229Z,100778.19
2022-09-23T14:56:10.657Z,100779.88
2022-09-23T14:59:02.365Z,100775.50
2022-09-23T15:01:52.862Z,100776.53
2022-09-23T15:04:44.099Z,100775.31
2022-09-23T15:07:35.236Z,100762.03
2022-09-23T15:10:30.634Z,100752.06
2022-09-23T15:13:32.863Z,100743.84
2022-09-23T15:16:30.580Z,100752.94
2022-09-23T15:19:23.025Z,100748.28
2022-09-23T15:22:14.458Z,100746.41
2022-09-23T15:25:22.397Z,100738.81
2022-09-23T15:28:12.858Z,100733.41
2022-09-23T15:31:04.617Z,100735.81
2022-09-23T15:34:03.460Z,100742.53
2022-09-23T15:36:53.798Z,100736.47
2022-09-23T15:39:44.358Z,100739.81
2022-09-23T15:42:34.949Z,100726.72
2022-09-23T15:45:37.389Z,100722.16
2022-09-23T15:48:34.011Z,100724.03
2022-09-23T15:51:27.998Z,100725.03
2022-09-23T15:54:18.537Z,100721.69
2022-09-23T15:57:10.691Z,100711.28
2022-09-23T16:00:01.033Z,100710.44
2022-09-23T16:03:02.555Z,100717.84
2022-09-23T16:05:53.221Z,100711.66
2022-09-23T16:08:45.500Z,100710.78
2022-09-23T16:11:37.414Z,100708.94
2022-09-23T16:14:27.940Z,100705.59
2022-09-23T16:17:18.542Z,100704.59
2022-09-23T16:20:10.041Z,100699.19
2022-09-23T16:23:07.923Z,100691.78
2022-09-23T16:25:59.333Z,100689.72
2022-09-23T16:28:51.954Z,100684.72
2022-09-23T16:31:42.746Z,100675.97
2022-09-23T16:34:36.125Z,100671.59
2022-09-23T16:37:26.402Z,100668.91
2022-09-23T16:40:22.089Z,100659.69
2022-09-23T16:43:13.202Z,100659.31
2022-09-23T16:46:03.584Z,100659.31
2022-09-23T16:48:53.465Z,100649.56
2022-09-23T16:51:43.451Z,100644.75
2022-09-23T16:54:33.564Z,100655.03
2022-09-23T16:57:23.879Z,100643.44
2022-09-23T17:00:35.222Z,100642.59
2022-09-23T17:03:43.570Z,100637.19
2022-09-23T17:06:33.081Z,100637.19
2022-09-23T17:09:28.854Z,100632.00
2022-09-23T17:12:36.358Z,100627.28
2022-09-23T17:15:26.592Z,100628.09
2022-09-23T17:18:19.532Z,100621.03
2022-09-23T17:21:10.335Z,100635.34
2022-09-23T17:24:00.441Z,100630.34
2022-09-23T17:26:52.976Z,100618.72
2022-09-23T17:29:46.197Z,100608.78
2022-09-23T17:32:39.020Z,100604.44
2022-09-23T17:35:29.687Z,100598.03
2022-09-23T17:38:19.526Z,100599.03
2022-09-23T17:41:10.740Z,100588.28
2022-09-23T17:44:02.046Z,100586.59
2022-09-23T17:46:52.588Z,100586.59
2022-09-23T17:49:44.370Z,100578.31
2022-09-23T17:52:34.631Z,100569.22
2022-09-23T17:55:29.069Z,100565.41
2022-09-23T17:58:20.386Z,100563.75
2022-09-23T18:01:18.922Z,100565.78
2022-09-23T18:04:09.175Z,100572.00
2022-09-23T18:06:59.729Z,100574.84
2022-09-23T18:09:49.660Z,100572.00
2022-09-23T18:12:39.581Z,100571.31
2022-09-23T18:15:34.601Z,100576.91
2022-09-23T18:18:25.143Z,100572.91
2022-09-23T18:21:15.248Z,100573.91
2022-09-23T18:27:18.693Z,100570.94
2022-09-23T18:30:09.268Z,100573.03
2022-09-23T18:33:00.241Z,100573.97
2022-09-23T18:35:50.037Z,100571.00
2022-09-23T18:38:42.307Z,100563.81
2022-09-23T18:41:33.315Z,100553.75
2022-09-23T18:44:25.050Z,100549.59
2022-09-23T18:47:37.226Z,100550.78
2022-09-23T18:50:44.438Z,100548.44
2022-09-23T18:53:34.453Z,100552.00
2022-09-23T18:56:24.515Z,100546.09
2022-09-23T18:59:22.660Z,100546.09
2022-09-23T19:02:16.834Z,100539.53
2022-09-23T19:05:14.845Z,100533.66
2022-09-23T19:08:05.469Z,100541.06
2022-09-23T19:11:00.535Z,100537.69
2022-09-23T19:13:56.446Z,100532.47
2022-09-23T19:16:46.575Z,100528.63
2022-09-23T19:19:37.222Z,100532.19
2022-09-23T19:22:27.689Z,100527.81
2022-09-23T19:25:18.885Z,100516.94
2022-09-23T19:28:09.854Z,100515.56
2022-09-23T19:31:00.516Z,100514.91
2022-09-23T19:34:01.505Z,100510.34
2022-09-23T19:36:53.104Z,100503.31
2022-09-23T19:39:43.865Z,100503.31
2022-09-23T19:42:34.429Z,100493.00
2022-09-23T19:45:24.411Z,100506.19
2022-09-23T19:48:14.558Z,100500.81
2022-09-23T19:51:05.270Z,100502.84
2022-09-23T19:53:55.685Z,100498.66
2022-09-23T19:56:46.378Z,100493.28
2022-09-23T19:59:36.858Z,100499.88
2022-09-23T20:02:28.326Z,100494.47
2022-09-23T20:05:21.849Z,100491.97
2022-09-23T20:08:11.875Z,100503.56
2022-09-23T20:11:10.141Z,100505.03
2022-09-23T20:14:05.231Z,100496.50
2022-09-23T20:16:54.804Z,100500.88
2022-09-23T20:19:46.054Z,100496.50
2022-09-23T20:22:36.472Z,100496.88
2022-09-23T20:25:26.733Z,100494.53
2022-09-23T20:28:17.890Z,100497.59
2022-09-23T20:31:08.471Z,100494.72
2022-09-23T20:34:03.116Z,100495.56
2022-09-23T20:36:53.282Z,100495.56
2022-09-23T20:39:45.259Z,100496.38
2022-09-23T20:42:36.601Z,100493.88
2022-09-23T20:45:28.923Z,100492.22
2022-09-23T20:48:19.683Z,100495.91
2022-09-23T20:51:12.842Z,100496.94
2022-09-23T20:54:03.603Z,100495.63
2022-09-23T20:56:54.956Z,100501.00
2022-09-23T20:59:48.549Z,100510.44
2022-09-23T21:02:38.710Z,100509.06
2022-09-23T21:05:28.776Z,100513.44
2022-09-23T21:08:18.821Z,100514.44
2022-09-23T21:11:14.618Z,100520.16
2022-09-23T21:14:05.163Z,100518.13
2022-09-23T21:16:58.733Z,100513.13
2022-09-23T21:19:48.778Z,100516.47
2022-09-23T21:22:38.876Z,100511.44
2022-09-23T21:25:29.752Z,100512.28
2022-09-23T21:28:20.921Z,100513.13
2022-09-23T21:31:16.571Z,100523.56
2022-09-23T21:34:09.065Z,100519.22
2022-09-23T21:36:59.482Z,100531.13
2022-09-23T21:40:09.107Z,100532.00
2022-09-23T21:43:02.895Z,100534.84
2022-09-23T21:46:03.729Z,100540.06
2022-09-23T21:48:56.532Z,100545.44
2022-09-23T21:51:46.389Z,100551.63
2022-09-23T21:54:37.596Z,100554.50
2022-09-23T21:57:28.230Z,100562.25
2022-09-23T22:00:19.407Z,100562.06
2022-09-23T22:03:13.435Z,100561.56
2022-09-23T22:06:15.382Z,100569.63
2022-09-23T22:09:12.078Z,100574.34
2022-09-23T22:12:13.100Z,100570.66
2022-09-23T22:15:06.296Z,100574.34
2022-09-23T22:17:56.706Z,100578.72
2022-09-23T22:20:48.436Z,100586.94
2022-09-23T22:23:40.998Z,100591.13
2022-09-23T22:26:43.646Z,100594.84
2022-09-23T22:29:52.070Z,100597.53
2022-09-23T22:32:42.469Z,100602.91
2022-09-23T22:35:32.024Z,100610.78
2022-09-23T22:38:22.101Z,100606.59
2022-09-23T22:41:16.662Z,100613.34
2022-09-23T22:44:07.677Z,100620.53
2022-09-23T22:47:00.179Z,100620.03
2022-09-23T22:49:50.777Z,100623.38
2022-09-23T22:52:40.930Z,100621.03
2022-09-23T22:55:31.437Z,100620.69
2022-09-23T22:58:32.382Z,100617.34
2022-09-23T23:01:25.108Z,100620.19
2022-09-23T23:04:16.231Z,100629.09
2022-09-23T23:07:08.024Z,100625.75
2022-09-23T23:10:00.203Z,100634.84
2022-09-23T23:12:53.598Z,100636.81
2022-09-23T23:15:48.315Z,100637.84
2022-09-23T23:18:43.747Z,100643.22
2022-09-23T23:21:35.375Z,100641.53
2022-09-23T23:24:26.766Z,100633.59
2022-09-23T23:27:17.816Z,100633.78
2022-09-23T23:30:09.779Z,100632.59
2022-09-23T23:33:00.417Z,100636.25
2022-09-23T23:35:53.813Z,100642.16
2022-09-23T23:38:46.461Z,100637.25
2022-09-23T23:41:37.150Z,100646.31
2022-09-23T23:44:31.018Z,100642.44
2022-09-23T23:47:22.800Z,100640.75
2022-09-23T23:50:14.623Z,100646.13
2022-09-23T23:53:06.864Z,100646.13
2022-09-23T23:55:59.351Z,100648.28
2022-09-23T23:58:49.834Z,100647.47
